Sao Raimundo Nonato, Brazil
Current Conditions -  °F | °C
As of 8:00 AM on Monday 20 Oct 2014 (Local Time) from SBPL Reporting Station
Few Clouds Few Clouds  
Wind Chill: 82°   Ceiling: Unl
Heat Index: 85°   Visibility: 6mi
Dew Point: 68°   Wind: 12mph
Humidity: 62%   Direction: 130°SE
Pressure: 29.97"   Gusts: NA
Location:  9.02°S, 42.7°W
Report Text: SBPL 201100Z 13010KT 9999 FEW020 28/20 Q1015
Loading
Personal Weather Stations






























Interactive Weather Map
Tropical Storm Tracking
New forecast layout! Learn more

10-Day Weather Forecast

Advertisements
Track Severe Weather on mobile